sensor_id;sensor_type;location;lat;lon;timestamp;pressure;altitude;pressure_sealevel;temperature
10869;BMP180;62667;48.698;8.762;2022-08-02T00:02:09;96263.00;;;19.10
10869;BMP180;62667;48.698;8.762;2022-08-02T00:04:35;96265.00;;;19.10
10869;BMP180;62667;48.698;8.762;2022-08-02T00:07:02;96268.00;;;19.10
10869;BMP180;62667;48.698;8.762;2022-08-02T00:09:30;96264.00;;;19.00
10869;BMP180;62667;48.698;8.762;2022-08-02T00:11:57;96260.00;;;18.90
10869;BMP180;62667;48.698;8.762;2022-08-02T00:14:26;96263.00;;;18.80
10869;BMP180;62667;48.698;8.762;2022-08-02T00:16:53;96265.00;;;18.90
10869;BMP180;62667;48.698;8.762;2022-08-02T00:19:20;96265.00;;;18.80
10869;BMP180;62667;48.698;8.762;2022-08-02T00:21:46;96260.00;;;18.80
10869;BMP180;62667;48.698;8.762;2022-08-02T00:24:13;96256.00;;;18.80
10869;BMP180;62667;48.698;8.762;2022-08-02T00:26:41;96252.00;;;18.80
10869;BMP180;62667;48.698;8.762;2022-08-02T00:29:08;96257.00;;;18.70
10869;BMP180;62667;48.698;8.762;2022-08-02T00:31:35;96258.00;;;18.60
10869;BMP180;62667;48.698;8.762;2022-08-02T00:34:02;96258.00;;;18.60
10869;BMP180;62667;48.698;8.762;2022-08-02T00:36:29;96253.00;;;18.70
10869;BMP180;62667;48.698;8.762;2022-08-02T00:38:56;96253.00;;;18.70
10869;BMP180;62667;48.698;8.762;2022-08-02T00:41:23;96250.00;;;18.70
10869;BMP180;62667;48.698;8.762;2022-08-02T00:43:51;96248.00;;;18.70
10869;BMP180;62667;48.698;8.762;2022-08-02T00:46:19;96242.00;;;18.70
10869;BMP180;62667;48.698;8.762;2022-08-02T00:48:46;96258.00;;;18.70
10869;BMP180;62667;48.698;8.762;2022-08-02T00:51:16;96249.00;;;18.60
10869;BMP180;62667;48.698;8.762;2022-08-02T00:53:43;96254.00;;;18.60
10869;BMP180;62667;48.698;8.762;2022-08-02T00:56:10;96250.00;;;18.50
10869;BMP180;62667;48.698;8.762;2022-08-02T00:58:36;96256.00;;;18.40
10869;BMP180;62667;48.698;8.762;2022-08-02T01:01:04;96250.00;;;18.40
10869;BMP180;62667;48.698;8.762;2022-08-02T01:03:31;96256.00;;;18.20
10869;BMP180;62667;48.698;8.762;2022-08-02T01:05:58;96263.00;;;18.20
10869;BMP180;62667;48.698;8.762;2022-08-02T01:08:25;96263.00;;;18.20
10869;BMP180;62667;48.698;8.762;2022-08-02T01:10:52;96262.00;;;18.30
10869;BMP180;62667;48.698;8.762;2022-08-02T01:13:19;96261.00;;;18.30
10869;BMP180;62667;48.698;8.762;2022-08-02T01:15:50;96257.00;;;18.30
10869;BMP180;62667;48.698;8.762;2022-08-02T01:18:23;96252.00;;;18.20
10869;BMP180;62667;48.698;8.762;2022-08-02T01:21:05;96252.00;;;18.20
10869;BMP180;62667;48.698;8.762;2022-08-02T01:23:50;96254.00;;;18.20
10869;BMP180;62667;48.698;8.762;2022-08-02T01:26:31;96258.00;;;18.20
10869;BMP180;62667;48.698;8.762;2022-08-02T01:29:06;96272.00;;;18.10
10869;BMP180;62667;48.698;8.762;2022-08-02T01:31:37;96271.00;;;18.10
10869;BMP180;62667;48.698;8.762;2022-08-02T01:34:12;96269.00;;;18.00
10869;BMP180;62667;48.698;8.762;2022-08-02T01:36:42;96260.00;;;17.90
10869;BMP180;62667;48.698;8.762;2022-08-02T01:39:12;96265.00;;;17.90
10869;BMP180;62667;48.698;8.762;2022-08-02T01:41:41;96272.00;;;17.80
10869;BMP180;62667;48.698;8.762;2022-08-02T01:44:11;96275.00;;;17.80
10869;BMP180;62667;48.698;8.762;2022-08-02T01:46:40;96281.00;;;17.90
10869;BMP180;62667;48.698;8.762;2022-08-02T01:49:15;96274.00;;;17.90
10869;BMP180;62667;48.698;8.762;2022-08-02T01:51:43;96278.00;;;17.90
10869;BMP180;62667;48.698;8.762;2022-08-02T01:54:32;96275.00;;;17.90
10869;BMP180;62667;48.698;8.762;2022-08-02T01:57:05;96280.00;;;17.90
10869;BMP180;62667;48.698;8.762;2022-08-02T01:59:33;96284.00;;;17.90
10869;BMP180;62667;48.698;8.762;2022-08-02T02:02:01;96287.00;;;17.90
10869;BMP180;62667;48.698;8.762;2022-08-02T02:04:30;96283.00;;;17.90
10869;BMP180;62667;48.698;8.762;2022-08-02T02:06:57;96282.00;;;17.90
10869;BMP180;62667;48.698;8.762;2022-08-02T02:09:27;96278.00;;;17.90
10869;BMP180;62667;48.698;8.762;2022-08-02T02:11:57;96282.00;;;17.70
10869;BMP180;62667;48.698;8.762;2022-08-02T02:14:26;96279.00;;;17.60
10869;BMP180;62667;48.698;8.762;2022-08-02T02:16:56;96271.00;;;17.70
10869;BMP180;62667;48.698;8.762;2022-08-02T02:19:25;96265.00;;;17.70
10869;BMP180;62667;48.698;8.762;2022-08-02T02:21:53;96269.00;;;17.60
10869;BMP180;62667;48.698;8.762;2022-08-02T02:24:23;96257.00;;;17.60
10869;BMP180;62667;48.698;8.762;2022-08-02T02:26:51;96258.00;;;17.60
10869;BMP180;62667;48.698;8.762;2022-08-02T02:29:19;96248.00;;;17.50
10869;BMP180;62667;48.698;8.762;2022-08-02T02:31:48;96244.00;;;17.50
10869;BMP180;62667;48.698;8.762;2022-08-02T02:34:25;96242.00;;;17.50
10869;BMP180;62667;48.698;8.762;2022-08-02T02:36:55;96234.00;;;17.40
10869;BMP180;62667;48.698;8.762;2022-08-02T02:39:24;96235.00;;;17.40
10869;BMP180;62667;48.698;8.762;2022-08-02T02:41:55;96227.00;;;17.30
10869;BMP180;62667;48.698;8.762;2022-08-02T02:44:23;96223.00;;;17.20
10869;BMP180;62667;48.698;8.762;2022-08-02T02:46:52;96231.00;;;17.20
10869;BMP180;62667;48.698;8.762;2022-08-02T02:49:21;96223.00;;;17.10
10869;BMP180;62667;48.698;8.762;2022-08-02T02:51:51;96218.00;;;17.10
10869;BMP180;62667;48.698;8.762;2022-08-02T02:54:19;96217.00;;;17.10
10869;BMP180;62667;48.698;8.762;2022-08-02T02:56:48;96216.00;;;17.20
10869;BMP180;62667;48.698;8.762;2022-08-02T02:59:17;96221.00;;;17.20
10869;BMP180;62667;48.698;8.762;2022-08-02T03:01:46;96220.00;;;17.20
10869;BMP180;62667;48.698;8.762;2022-08-02T03:04:16;96223.00;;;17.20
10869;BMP180;62667;48.698;8.762;2022-08-02T03:06:46;96220.00;;;17.10
10869;BMP180;62667;48.698;8.762;2022-08-02T03:09:13;96228.00;;;17.00
10869;BMP180;62667;48.698;8.762;2022-08-02T03:11:40;96227.00;;;17.00
10869;BMP180;62667;48.698;8.762;2022-08-02T03:14:09;96231.00;;;16.90
10869;BMP180;62667;48.698;8.762;2022-08-02T03:16:42;96231.00;;;16.70
10869;BMP180;62667;48.698;8.762;2022-08-02T03:19:09;96229.00;;;16.70
10869;BMP180;62667;48.698;8.762;2022-08-02T03:21:38;96232.00;;;16.70
10869;BMP180;62667;48.698;8.762;2022-08-02T03:24:06;96230.00;;;16.60
10869;BMP180;62667;48.698;8.762;2022-08-02T03:26:34;96232.00;;;16.50
10869;BMP180;62667;48.698;8.762;2022-08-02T03:29:01;96231.00;;;16.60
10869;BMP180;62667;48.698;8.762;2022-08-02T03:31:28;96234.00;;;16.60
10869;BMP180;62667;48.698;8.762;2022-08-02T03:33:58;96232.00;;;16.50
10869;BMP180;62667;48.698;8.762;2022-08-02T03:36:29;96238.00;;;16.40
10869;BMP180;62667;48.698;8.762;2022-08-02T03:38:58;96222.00;;;16.50
10869;BMP180;62667;48.698;8.762;2022-08-02T03:41:26;96237.00;;;16.50
10869;BMP180;62667;48.698;8.762;2022-08-02T03:43:53;96234.00;;;16.60
10869;BMP180;62667;48.698;8.762;2022-08-02T03:46:25;96246.00;;;16.70
10869;BMP180;62667;48.698;8.762;2022-08-02T03:48:53;96237.00;;;16.70
10869;BMP180;62667;48.698;8.762;2022-08-02T03:51:20;96233.00;;;16.70
10869;BMP180;62667;48.698;8.762;2022-08-02T03:53:48;96237.00;;;16.60
10869;BMP180;62667;48.698;8.762;2022-08-02T03:56:16;96248.00;;;16.50
10869;BMP180;62667;48.698;8.762;2022-08-02T03:58:43;96245.00;;;16.40
10869;BMP180;62667;48.698;8.762;2022-08-02T04:01:10;96237.00;;;16.40
10869;BMP180;62667;48.698;8.762;2022-08-02T04:03:40;96247.00;;;16.20
10869;BMP180;62667;48.698;8.762;2022-08-02T04:06:09;96244.00;;;16.10
10869;BMP180;62667;48.698;8.762;2022-08-02T04:08:36;96236.00;;;16.10
10869;BMP180;62667;48.698;8.762;2022-08-02T04:11:02;96247.00;;;16.20
10869;BMP180;62667;48.698;8.762;2022-08-02T04:13:48;96246.00;;;16.30
10869;BMP180;62667;48.698;8.762;2022-08-02T04:16:20;96248.00;;;16.30
10869;BMP180;62667;48.698;8.762;2022-08-02T04:18:53;96243.00;;;16.20
10869;BMP180;62667;48.698;8.762;2022-08-02T04:21:22;96243.00;;;16.20
10869;BMP180;62667;48.698;8.762;2022-08-02T04:23:51;96248.00;;;16.30
10869;BMP180;62667;48.698;8.762;2022-08-02T04:26:19;96257.00;;;16.30
10869;BMP180;62667;48.698;8.762;2022-08-02T04:28:48;96255.00;;;16.30
10869;BMP180;62667;48.698;8.762;2022-08-02T04:31:16;96260.00;;;16.20
10869;BMP180;62667;48.698;8.762;2022-08-02T04:33:46;96262.00;;;16.20
10869;BMP180;62667;48.698;8.762;2022-08-02T04:36:13;96254.00;;;16.30
10869;BMP180;62667;48.698;8.762;2022-08-02T04:38:41;96255.00;;;16.40
10869;BMP180;62667;48.698;8.762;2022-08-02T04:41:08;96258.00;;;16.50
10869;BMP180;62667;48.698;8.762;2022-08-02T04:43:35;96261.00;;;16.50
10869;BMP180;62667;48.698;8.762;2022-08-02T04:46:04;96260.00;;;16.60
10869;BMP180;62667;48.698;8.762;2022-08-02T04:48:32;96266.00;;;16.60
10869;BMP180;62667;48.698;8.762;2022-08-02T04:50:59;96263.00;;;16.60
10869;BMP180;62667;48.698;8.762;2022-08-02T04:53:26;96263.00;;;16.80
10869;BMP180;62667;48.698;8.762;2022-08-02T04:55:52;96270.00;;;16.90
10869;BMP180;62667;48.698;8.762;2022-08-02T04:58:21;96264.00;;;17.00
10869;BMP180;62667;48.698;8.762;2022-08-02T05:00:48;96264.00;;;17.10
10869;BMP180;62667;48.698;8.762;2022-08-02T05:03:16;96266.00;;;17.10
10869;BMP180;62667;48.698;8.762;2022-08-02T05:05:42;96259.00;;;17.00
10869;BMP180;62667;48.698;8.762;2022-08-02T05:08:09;96265.00;;;17.00
10869;BMP180;62667;48.698;8.762;2022-08-02T05:10:36;96271.00;;;17.10
10869;BMP180;62667;48.698;8.762;2022-08-02T05:13:04;96268.00;;;17.10
10869;BMP180;62667;48.698;8.762;2022-08-02T05:15:31;96265.00;;;17.10
10869;BMP180;62667;48.698;8.762;2022-08-02T05:18:00;96274.00;;;17.20
10869;BMP180;62667;48.698;8.762;2022-08-02T05:20:28;96280.00;;;17.30
10869;BMP180;62667;48.698;8.762;2022-08-02T05:22:55;96266.00;;;17.30
10869;BMP180;62667;48.698;8.762;2022-08-02T05:25:22;96265.00;;;17.30
10869;BMP180;62667;48.698;8.762;2022-08-02T05:27:51;96257.00;;;17.40
10869;BMP180;62667;48.698;8.762;2022-08-02T05:30:17;96248.00;;;17.40
10869;BMP180;62667;48.698;8.762;2022-08-02T05:32:46;96255.00;;;17.50
10869;BMP180;62667;48.698;8.762;2022-08-02T05:35:17;96257.00;;;17.60
10869;BMP180;62667;48.698;8.762;2022-08-02T05:37:48;96263.00;;;17.70
10869;BMP180;62667;48.698;8.762;2022-08-02T05:40:16;96259.00;;;17.70
10869;BMP180;62667;48.698;8.762;2022-08-02T05:42:43;96263.00;;;17.60
10869;BMP180;62667;48.698;8.762;2022-08-02T05:45:13;96270.00;;;17.30
10869;BMP180;62667;48.698;8.762;2022-08-02T05:47:43;96271.00;;;17.20
10869;BMP180;62667;48.698;8.762;2022-08-02T05:50:10;96274.00;;;17.30
10869;BMP180;62667;48.698;8.762;2022-08-02T05:52:45;96274.00;;;17.30
10869;BMP180;62667;48.698;8.762;2022-08-02T05:55:16;96268.00;;;17.30
10869;BMP180;62667;48.698;8.762;2022-08-02T05:57:50;96267.00;;;17.50
10869;BMP180;62667;48.698;8.762;2022-08-02T06:00:20;96273.00;;;17.70
10869;BMP180;62667;48.698;8.762;2022-08-02T06:03:19;96269.00;;;17.90
10869;BMP180;62667;48.698;8.762;2022-08-02T06:05:52;96271.00;;;17.90
10869;BMP180;62667;48.698;8.762;2022-08-02T06:08:20;96268.00;;;17.90
10869;BMP180;62667;48.698;8.762;2022-08-02T06:10:56;96268.00;;;18.00
10869;BMP180;62667;48.698;8.762;2022-08-02T06:13:27;96272.00;;;18.00
10869;BMP180;62667;48.698;8.762;2022-08-02T06:15:54;96281.00;;;18.10
10869;BMP180;62667;48.698;8.762;2022-08-02T06:18:26;96272.00;;;18.10
10869;BMP180;62667;48.698;8.762;2022-08-02T06:20:56;96267.00;;;18.30
10869;BMP180;62667;48.698;8.762;2022-08-02T06:23:25;96270.00;;;18.40
10869;BMP180;62667;48.698;8.762;2022-08-02T06:25:58;96264.00;;;18.40
10869;BMP180;62667;48.698;8.762;2022-08-02T06:28:25;96267.00;;;18.50
10869;BMP180;62667;48.698;8.762;2022-08-02T06:30:52;96266.00;;;18.60
10869;BMP180;62667;48.698;8.762;2022-08-02T06:33:41;96260.00;;;18.80
10869;BMP180;62667;48.698;8.762;2022-08-02T06:36:14;96260.00;;;18.80
10869;BMP180;62667;48.698;8.762;2022-08-02T06:38:45;96263.00;;;18.90
10869;BMP180;62667;48.698;8.762;2022-08-02T06:41:14;96252.00;;;19.00
10869;BMP180;62667;48.698;8.762;2022-08-02T06:43:46;96255.00;;;19.10
10869;BMP180;62667;48.698;8.762;2022-08-02T06:46:15;96258.00;;;19.00
10869;BMP180;62667;48.698;8.762;2022-08-02T06:48:42;96255.00;;;19.10
10869;BMP180;62667;48.698;8.762;2022-08-02T06:51:09;96263.00;;;19.30
10869;BMP180;62667;48.698;8.762;2022-08-02T06:53:36;96269.00;;;19.40
10869;BMP180;62667;48.698;8.762;2022-08-02T06:56:05;96270.00;;;19.40
10869;BMP180;62667;48.698;8.762;2022-08-02T06:58:33;96264.00;;;19.40
10869;BMP180;62667;48.698;8.762;2022-08-02T07:01:00;96271.00;;;19.50
10869;BMP180;62667;48.698;8.762;2022-08-02T07:03:27;96263.00;;;19.80
10869;BMP180;62667;48.698;8.762;2022-08-02T07:05:54;96265.00;;;19.90
10869;BMP180;62667;48.698;8.762;2022-08-02T07:08:20;96269.00;;;19.90
10869;BMP180;62667;48.698;8.762;2022-08-02T07:10:48;96269.00;;;20.00
10869;BMP180;62667;48.698;8.762;2022-08-02T07:13:15;96271.00;;;20.10
10869;BMP180;62667;48.698;8.762;2022-08-02T07:15:42;96273.00;;;20.30
10869;BMP180;62667;48.698;8.762;2022-08-02T07:18:09;96266.00;;;20.40
10869;BMP180;62667;48.698;8.762;2022-08-02T07:20:40;96271.00;;;20.60
10869;BMP180;62667;48.698;8.762;2022-08-02T07:23:07;96261.00;;;20.70
10869;BMP180;62667;48.698;8.762;2022-08-02T07:25:36;96260.00;;;20.80
10869;BMP180;62667;48.698;8.762;2022-08-02T07:28:04;96266.00;;;20.90
10869;BMP180;62667;48.698;8.762;2022-08-02T07:30:31;96267.00;;;21.10
10869;BMP180;62667;48.698;8.762;2022-08-02T07:32:59;96273.00;;;21.10
10869;BMP180;62667;48.698;8.762;2022-08-02T07:35:26;96270.00;;;21.10
10869;BMP180;62667;48.698;8.762;2022-08-02T07:37:53;96281.00;;;21.20
10869;BMP180;62667;48.698;8.762;2022-08-02T07:40:21;96276.00;;;21.30
10869;BMP180;62667;48.698;8.762;2022-08-02T07:42:49;96288.00;;;21.30
10869;BMP180;62667;48.698;8.762;2022-08-02T07:45:19;96289.00;;;21.40
10869;BMP180;62667;48.698;8.762;2022-08-02T07:47:45;96279.00;;;21.30
10869;BMP180;62667;48.698;8.762;2022-08-02T07:50:17;96282.00;;;21.30
10869;BMP180;62667;48.698;8.762;2022-08-02T07:52:44;96288.00;;;21.30
10869;BMP180;62667;48.698;8.762;2022-08-02T07:55:12;96279.00;;;21.50
10869;BMP180;62667;48.698;8.762;2022-08-02T07:57:40;96279.00;;;21.60
10869;BMP180;62667;48.698;8.762;2022-08-02T08:00:08;96279.00;;;21.90
10869;BMP180;62667;48.698;8.762;2022-08-02T08:02:35;96282.00;;;22.10
10869;BMP180;62667;48.698;8.762;2022-08-02T08:05:02;96276.00;;;22.40
10869;BMP180;62667;48.698;8.762;2022-08-02T08:07:30;96282.00;;;22.40
10869;BMP180;62667;48.698;8.762;2022-08-02T08:09:56;96286.00;;;22.50
10869;BMP180;62667;48.698;8.762;2022-08-02T08:12:25;96283.00;;;22.70
10869;BMP180;62667;48.698;8.762;2022-08-02T08:14:52;96274.00;;;22.70
10869;BMP180;62667;48.698;8.762;2022-08-02T08:17:19;96284.00;;;22.50
10869;BMP180;62667;48.698;8.762;2022-08-02T08:19:46;96280.00;;;22.40
10869;BMP180;62667;48.698;8.762;2022-08-02T08:22:13;96278.00;;;22.40
10869;BMP180;62667;48.698;8.762;2022-08-02T08:24:40;96288.00;;;22.60
10869;BMP180;62667;48.698;8.762;2022-08-02T08:27:09;96284.00;;;22.70
10869;BMP180;62667;48.698;8.762;2022-08-02T08:29:42;96284.00;;;22.90
10869;BMP180;62667;48.698;8.762;2022-08-02T08:32:09;96278.00;;;23.20
10869;BMP180;62667;48.698;8.762;2022-08-02T08:34:36;96276.00;;;23.30
10869;BMP180;62667;48.698;8.762;2022-08-02T08:37:03;96282.00;;;23.30
10869;BMP180;62667;48.698;8.762;2022-08-02T08:39:30;96278.00;;;23.30
10869;BMP180;62667;48.698;8.762;2022-08-02T08:41:57;96289.00;;;23.40
10869;BMP180;62667;48.698;8.762;2022-08-02T08:44:24;96280.00;;;23.40
10869;BMP180;62667;48.698;8.762;2022-08-02T08:46:54;96271.00;;;23.60
10869;BMP180;62667;48.698;8.762;2022-08-02T08:49:26;96268.00;;;23.80
10869;BMP180;62667;48.698;8.762;2022-08-02T08:52:00;96263.00;;;23.90
10869;BMP180;62667;48.698;8.762;2022-08-02T08:54:30;96258.00;;;24.00
10869;BMP180;62667;48.698;8.762;2022-08-02T08:56:58;96264.00;;;24.00
10869;BMP180;62667;48.698;8.762;2022-08-02T08:59:25;96265.00;;;23.90
10869;BMP180;62667;48.698;8.762;2022-08-02T09:01:52;96269.00;;;24.10
10869;BMP180;62667;48.698;8.762;2022-08-02T09:04:21;96270.00;;;24.40
10869;BMP180;62667;48.698;8.762;2022-08-02T09:06:48;96271.00;;;24.60
10869;BMP180;62667;48.698;8.762;2022-08-02T09:09:17;96272.00;;;24.70
10869;BMP180;62667;48.698;8.762;2022-08-02T09:11:44;96271.00;;;24.70
10869;BMP180;62667;48.698;8.762;2022-08-02T09:14:25;96258.00;;;24.80
10869;BMP180;62667;48.698;8.762;2022-08-02T09:16:53;96258.00;;;25.00
10869;BMP180;62667;48.698;8.762;2022-08-02T09:19:31;96266.00;;;25.30
10869;BMP180;62667;48.698;8.762;2022-08-02T09:22:01;96253.00;;;25.10
10869;BMP180;62667;48.698;8.762;2022-08-02T09:24:28;96260.00;;;25.00
10869;BMP180;62667;48.698;8.762;2022-08-02T09:26:55;96258.00;;;25.10
10869;BMP180;62667;48.698;8.762;2022-08-02T09:29:24;96260.00;;;25.30
10869;BMP180;62667;48.698;8.762;2022-08-02T09:31:52;96254.00;;;25.30
10869;BMP180;62667;48.698;8.762;2022-08-02T09:34:43;96261.00;;;25.50
10869;BMP180;62667;48.698;8.762;2022-08-02T09:37:21;96265.00;;;25.40
10869;BMP180;62667;48.698;8.762;2022-08-02T09:39:49;96261.00;;;25.50
10869;BMP180;62667;48.698;8.762;2022-08-02T09:42:15;96265.00;;;25.80
10869;BMP180;62667;48.698;8.762;2022-08-02T09:44:53;96267.00;;;25.50
10869;BMP180;62667;48.698;8.762;2022-08-02T09:47:20;96261.00;;;25.70
10869;BMP180;62667;48.698;8.762;2022-08-02T09:49:48;96266.00;;;25.60
10869;BMP180;62667;48.698;8.762;2022-08-02T09:52:15;96264.00;;;25.90
10869;BMP180;62667;48.698;8.762;2022-08-02T09:54:47;96262.00;;;26.00
10869;BMP180;62667;48.698;8.762;2022-08-02T09:57:24;96263.00;;;26.10
10869;BMP180;62667;48.698;8.762;2022-08-02T09:59:54;96270.00;;;26.10
10869;BMP180;62667;48.698;8.762;2022-08-02T10:02:21;96265.00;;;26.30
10869;BMP180;62667;48.698;8.762;2022-08-02T10:04:48;96273.00;;;26.60
10869;BMP180;62667;48.698;8.762;2022-08-02T10:07:16;96264.00;;;26.50
10869;BMP180;62667;48.698;8.762;2022-08-02T10:09:46;96259.00;;;26.80
10869;BMP180;62667;48.698;8.762;2022-08-02T10:12:14;96255.00;;;26.60
10869;BMP180;62667;48.698;8.762;2022-08-02T10:14:41;96256.00;;;26.60
10869;BMP180;62667;48.698;8.762;2022-08-02T10:17:09;96251.00;;;26.90
10869;BMP180;62667;48.698;8.762;2022-08-02T10:19:36;96250.00;;;26.90
10869;BMP180;62667;48.698;8.762;2022-08-02T10:22:05;96248.00;;;26.70
10869;BMP180;62667;48.698;8.762;2022-08-02T10:24:37;96245.00;;;26.40
10869;BMP180;62667;48.698;8.762;2022-08-02T10:27:06;96241.00;;;26.60
10869;BMP180;62667;48.698;8.762;2022-08-02T10:29:38;96244.00;;;26.70
10869;BMP180;62667;48.698;8.762;2022-08-02T10:32:11;96236.00;;;26.90
10869;BMP180;62667;48.698;8.762;2022-08-02T10:34:46;96243.00;;;27.20
10869;BMP180;62667;48.698;8.762;2022-08-02T10:37:14;96235.00;;;27.10
10869;BMP180;62667;48.698;8.762;2022-08-02T10:39:43;96239.00;;;27.10
10869;BMP180;62667;48.698;8.762;2022-08-02T10:42:12;96230.00;;;27.30
10869;BMP180;62667;48.698;8.762;2022-08-02T10:44:42;96230.00;;;27.60
10869;BMP180;62667;48.698;8.762;2022-08-02T10:47:25;96221.00;;;27.80
10869;BMP180;62667;48.698;8.762;2022-08-02T10:49:55;96217.00;;;27.60
10869;BMP180;62667;48.698;8.762;2022-08-02T10:52:22;96223.00;;;27.80
10869;BMP180;62667;48.698;8.762;2022-08-02T10:54:55;96216.00;;;27.90
10869;BMP180;62667;48.698;8.762;2022-08-02T10:57:24;96219.00;;;28.20
10869;BMP180;62667;48.698;8.762;2022-08-02T10:59:54;96215.00;;;28.20
10869;BMP180;62667;48.698;8.762;2022-08-02T11:02:46;96218.00;;;28.70
10869;BMP180;62667;48.698;8.762;2022-08-02T11:05:14;96208.00;;;28.70
10869;BMP180;62667;48.698;8.762;2022-08-02T11:07:46;96205.00;;;29.10
10869;BMP180;62667;48.698;8.762;2022-08-02T11:13:13;96204.00;;;28.70
10869;BMP180;62667;48.698;8.762;2022-08-02T11:15:56;96208.00;;;29.10
10869;BMP180;62667;48.698;8.762;2022-08-02T11:21:31;96214.00;;;29.50
10869;BMP180;62667;48.698;8.762;2022-08-02T11:24:28;96206.00;;;29.20
10869;BMP180;62667;48.698;8.762;2022-08-02T11:26:56;96188.00;;;29.40
10869;BMP180;62667;48.698;8.762;2022-08-02T11:29:36;96193.00;;;29.90
10869;BMP180;62667;48.698;8.762;2022-08-02T11:32:04;96187.00;;;30.10
10869;BMP180;62667;48.698;8.762;2022-08-02T11:34:31;96212.00;;;29.80
10869;BMP180;62667;48.698;8.762;2022-08-02T11:36:59;96194.00;;;29.40
10869;BMP180;62667;48.698;8.762;2022-08-02T11:39:26;96209.00;;;29.10
10869;BMP180;62667;48.698;8.762;2022-08-02T11:41:55;96178.00;;;28.20
10869;BMP180;62667;48.698;8.762;2022-08-02T11:44:23;96186.00;;;28.90
10869;BMP180;62667;48.698;8.762;2022-08-02T11:46:54;96188.00;;;29.60
10869;BMP180;62667;48.698;8.762;2022-08-02T11:49:21;96179.00;;;29.30
10869;BMP180;62667;48.698;8.762;2022-08-02T11:51:57;96181.00;;;29.80
10869;BMP180;62667;48.698;8.762;2022-08-02T11:54:29;96182.00;;;30.00
10869;BMP180;62667;48.698;8.762;2022-08-02T11:57:13;96196.00;;;30.20
10869;BMP180;62667;48.698;8.762;2022-08-02T11:59:41;96204.00;;;30.00
10869;BMP180;62667;48.698;8.762;2022-08-02T12:02:11;96176.00;;;30.00
10869;BMP180;62667;48.698;8.762;2022-08-02T12:04:39;96178.00;;;30.40
10869;BMP180;62667;48.698;8.762;2022-08-02T12:07:07;96180.00;;;30.80
10869;BMP180;62667;48.698;8.762;2022-08-02T12:09:37;96199.00;;;30.60
10869;BMP180;62667;48.698;8.762;2022-08-02T12:12:04;96189.00;;;29.50
10869;BMP180;62667;48.698;8.762;2022-08-02T12:14:32;96193.00;;;28.90
10869;BMP180;62667;48.698;8.762;2022-08-02T12:17:06;96204.00;;;28.70
10869;BMP180;62667;48.698;8.762;2022-08-02T12:19:52;96168.00;;;29.00
10869;BMP180;62667;48.698;8.762;2022-08-02T12:22:24;96162.00;;;30.00
10869;BMP180;62667;48.698;8.762;2022-08-02T12:24:55;96172.00;;;30.50
10869;BMP180;62667;48.698;8.762;2022-08-02T12:27:32;96174.00;;;31.00
10869;BMP180;62667;48.698;8.762;2022-08-02T12:30:05;96174.00;;;31.40
10869;BMP180;62667;48.698;8.762;2022-08-02T12:32:33;96172.00;;;31.50
10869;BMP180;62667;48.698;8.762;2022-08-02T12:35:07;96172.00;;;31.90
10869;BMP180;62667;48.698;8.762;2022-08-02T12:37:35;96175.00;;;32.30
10869;BMP180;62667;48.698;8.762;2022-08-02T12:40:22;96173.00;;;32.00
10869;BMP180;62667;48.698;8.762;2022-08-02T12:42:51;96200.00;;;31.60
10869;BMP180;62667;48.698;8.762;2022-08-02T12:45:18;96202.00;;;31.30
10869;BMP180;62667;48.698;8.762;2022-08-02T12:47:46;96192.00;;;30.80
10869;BMP180;62667;48.698;8.762;2022-08-02T12:50:16;96193.00;;;30.80
10869;BMP180;62667;48.698;8.762;2022-08-02T12:52:45;96156.00;;;31.00
10869;BMP180;62667;48.698;8.762;2022-08-02T12:55:17;96160.00;;;31.20
10869;BMP180;62667;48.698;8.762;2022-08-02T12:57:53;96179.00;;;31.30
10869;BMP180;62667;48.698;8.762;2022-08-02T13:00:25;96181.00;;;30.80
10869;BMP180;62667;48.698;8.762;2022-08-02T13:02:54;96182.00;;;30.70
10869;BMP180;62667;48.698;8.762;2022-08-02T13:05:21;96173.00;;;30.50
10869;BMP180;62667;48.698;8.762;2022-08-02T13:07:47;96184.00;;;30.70
10869;BMP180;62667;48.698;8.762;2022-08-02T13:10:17;96182.00;;;30.70
10869;BMP180;62667;48.698;8.762;2022-08-02T13:12:44;96159.00;;;30.40
10869;BMP180;62667;48.698;8.762;2022-08-02T13:15:14;96150.00;;;31.00
10869;BMP180;62667;48.698;8.762;2022-08-02T13:17:41;96153.00;;;31.70
10869;BMP180;62667;48.698;8.762;2022-08-02T13:20:09;96158.00;;;31.90
10869;BMP180;62667;48.698;8.762;2022-08-02T13:22:38;96156.00;;;32.00
10869;BMP180;62667;48.698;8.762;2022-08-02T13:25:06;96149.00;;;31.50
10869;BMP180;62667;48.698;8.762;2022-08-02T13:27:36;96155.00;;;31.40
10869;BMP180;62667;48.698;8.762;2022-08-02T13:30:04;96146.00;;;32.40
10869;BMP180;62667;48.698;8.762;2022-08-02T13:32:32;96147.00;;;33.10
10869;BMP180;62667;48.698;8.762;2022-08-02T13:34:59;96150.00;;;32.80
10869;BMP180;62667;48.698;8.762;2022-08-02T13:37:26;96161.00;;;32.90
10869;BMP180;62667;48.698;8.762;2022-08-02T13:39:53;96161.00;;;32.70
10869;BMP180;62667;48.698;8.762;2022-08-02T13:42:22;96161.00;;;31.80
10869;BMP180;62667;48.698;8.762;2022-08-02T13:44:51;96166.00;;;32.00
10869;BMP180;62667;48.698;8.762;2022-08-02T13:47:18;96159.00;;;31.90
10869;BMP180;62667;48.698;8.762;2022-08-02T13:49:45;96166.00;;;31.50
10869;BMP180;62667;48.698;8.762;2022-08-02T13:52:15;96163.00;;;31.30
10869;BMP180;62667;48.698;8.762;2022-08-02T13:54:44;96162.00;;;30.70
10869;BMP180;62667;48.698;8.762;2022-08-02T13:57:11;96150.00;;;30.50
10869;BMP180;62667;48.698;8.762;2022-08-02T13:59:38;96138.00;;;31.10
10869;BMP180;62667;48.698;8.762;2022-08-02T14:02:04;96129.00;;;31.70
10869;BMP180;62667;48.698;8.762;2022-08-02T14:04:33;96133.00;;;31.70
10869;BMP180;62667;48.698;8.762;2022-08-02T14:07:01;96134.00;;;31.90
10869;BMP180;62667;48.698;8.762;2022-08-02T14:09:28;96124.00;;;32.70
10869;BMP180;62667;48.698;8.762;2022-08-02T14:11:57;96121.00;;;32.80
10869;BMP180;62667;48.698;8.762;2022-08-02T14:14:27;96122.00;;;33.30
10869;BMP180;62667;48.698;8.762;2022-08-02T14:16:54;96121.00;;;33.90
10869;BMP180;62667;48.698;8.762;2022-08-02T14:19:21;96120.00;;;34.30
10869;BMP180;62667;48.698;8.762;2022-08-02T14:21:51;96121.00;;;34.70
10869;BMP180;62667;48.698;8.762;2022-08-02T14:24:19;96118.00;;;34.70
10869;BMP180;62667;48.698;8.762;2022-08-02T14:26:49;96119.00;;;34.90
10869;BMP180;62667;48.698;8.762;2022-08-02T14:29:16;96121.00;;;35.20